Wetterdaten: Woche 13.08.12 - 19.08.12 (KW33)
Datum Zeit Temperatur Luftfeuchte Luftdruck Niederschlag Windrichtung Sonnenschein Solar Wind
13.08.2012 00:00 14,5 C 78 % 1012,6 hPa 0,0 l/m N 0,00 h 0 W/m 1,1 km/h (0 Bft)
13.08.2012 01:00 14,1 C 80 % 1012,7 hPa 0,0 l/m N 0,00 h 0 W/m 1,1 km/h (0 Bft)
13.08.2012 02:00 13,3 C 82 % 1012,4 hPa 0,0 l/m NO 0,00 h 0 W/m 3,1 km/h (1 Bft)
13.08.2012 03:00 12,8 C 83 % 1012,4 hPa 0,0 l/m N-NW 0,00 h 0 W/m 3,5 km/h (1 Bft)
13.08.2012 04:00 12,1 C 85 % 1012,4 hPa 0,0 l/m N 0,00 h 0 W/m 3,2 km/h (1 Bft)
13.08.2012 05:00 11,4 C 89 % 1012,4 hPa 0,0 l/m N-NW 0,00 h 0 W/m 1,5 km/h (1 Bft)
13.08.2012 06:00 11,5 C 87 % 1012,5 hPa 0,0 l/m N 0,17 h 14 W/m 2,9 km/h (1 Bft)
13.08.2012 07:00 12,3 C 84 % 1012,7 hPa 0,0 l/m N-NW 0,17 h 86 W/m 3,6 km/h (1 Bft)
13.08.2012 08:00 14,0 C 80 % 1012,7 hPa 0,0 l/m N-NW 1,00 h 264 W/m 3,9 km/h (1 Bft)
13.08.2012 09:00 16,7 C 73 % 1012,6 hPa 0,0 l/m N-NW 1,00 h 429 W/m 2,8 km/h (1 Bft)
13.08.2012 10:00 19,1 C 68 % 1012,5 hPa 0,0 l/m N-NW 1,00 h 573 W/m 4,5 km/h (1 Bft)
13.08.2012 11:00 21,3 C 61 % 1012,1 hPa 0,0 l/m O 1,00 h 712 W/m 7,5 km/h (2 Bft)
13.08.2012 12:00 22,8 C 54 % 1011,8 hPa 0,0 l/m O 1,00 h 800 W/m 8,7 km/h (2 Bft)
13.08.2012 13:00 24,0 C 49 % 1011,4 hPa 0,0 l/m O-NO 1,00 h 835 W/m 9,7 km/h (2 Bft)
13.08.2012 14:00 24,7 C 48 % 1011,0 hPa 0,0 l/m N-NO 1,00 h 842 W/m 10,9 km/h (2 Bft)
13.08.2012 15:00 24,8 C 46 % 1010,8 hPa 0,0 l/m NO 0,75 h 566 W/m 10,9 km/h (2 Bft)
13.08.2012 16:00 25,2 C 43 % 1010,6 hPa 0,0 l/m NO 0,58 h 408 W/m 9,9 km/h (2 Bft)
13.08.2012 17:00 25,1 C 44 % 1010,5 hPa 0,0 l/m O 1,00 h 458 W/m 13,2 km/h (3 Bft)
13.08.2012 18:00 24,8 C 43 % 1010,3 hPa 0,0 l/m O-SO 1,00 h 265 W/m 12,8 km/h (3 Bft)
13.08.2012 19:00 22,9 C 46 % 1010,4 hPa 0,0 l/m O-SO 0,08 h 31 W/m 8,0 km/h (2 Bft)
13.08.2012 20:00 21,8 C 48 % 1010,8 hPa 0,0 l/m O-NO 0,00 h 7 W/m 4,8 km/h (1 Bft)
13.08.2012 21:00 20,6 C 51 % 1011,3 hPa 0,0 l/m O 0,00 h 0 W/m 6,8 km/h (2 Bft)
13.08.2012 22:00 19,1 C 55 % 1011,4 hPa 0,0 l/m O 0,00 h 0 W/m 6,4 km/h (2 Bft)
13.08.2012 23:00 17,2 C 64 % 1011,9 hPa 0,0 l/m O 0,00 h 0 W/m 1,7 km/h (1 Bft)
14.08.2012 00:00 17,7 C 59 % 1011,9 hPa 0,0 l/m N 0,00 h 0 W/m 2,9 km/h (1 Bft)
14.08.2012 01:00 16,2 C 69 % 1011,6 hPa 0,0 l/m N 0,00 h 0 W/m 0,8 km/h (0 Bft)
14.08.2012 02:00 15,0 C 74 % 1011,4 hPa 0,0 l/m O 0,00 h 0 W/m 0,8 km/h (0 Bft)
14.08.2012 03:00 14,9 C 74 % 1011,4 hPa 0,0 l/m N 0,00 h 0 W/m 1,3 km/h (1 Bft)
14.08.2012 04:00 14,3 C 75 % 1011,5 hPa 0,0 l/m O-NO 0,00 h 0 W/m 4,7 km/h (1 Bft)
14.08.2012 05:00 13,6 C 79 % 1011,3 hPa 0,0 l/m NO 0,00 h 0 W/m 2,3 km/h (1 Bft)
14.08.2012 06:00 12,9 C 82 % 1011,2 hPa 0,0 l/m N 0,00 h 13 W/m 2,7 km/h (1 Bft)
14.08.2012 07:00 13,8 C 78 % 1011,6 hPa 0,0 l/m NO 0,50 h 99 W/m 4,3 km/h (1 Bft)
14.08.2012 08:00 15,3 C 76 % 1011,9 hPa 0,0 l/m NO 0,17 h 160 W/m 4,1 km/h (1 Bft)
14.08.2012 09:00 18,0 C 68 % 1011,8 hPa 0,0 l/m NO 0,58 h 313 W/m 4,3 km/h (1 Bft)
14.08.2012 10:00 21,0 C 61 % 1011,9 hPa 0,0 l/m O-SO 1,00 h 556 W/m 7,8 km/h (2 Bft)
14.08.2012 11:00 23,4 C 51 % 1011,5 hPa 0,0 l/m O-SO 1,00 h 693 W/m 11,0 km/h (2 Bft)
14.08.2012 12:00 25,0 C 38 % 1011,5 hPa 0,0 l/m O-SO 1,00 h 746 W/m 14,4 km/h (3 Bft)
14.08.2012 13:00 25,9 C 39 % 1011,4 hPa 0,0 l/m SO 1,00 h 764 W/m 11,4 km/h (2 Bft)
14.08.2012 14:00 26,2 C 38 % 1011,1 hPa 0,0 l/m O-SO 1,00 h 774 W/m 13,0 km/h (3 Bft)
14.08.2012 15:00 26,8 C 36 % 1011,0 hPa 0,0 l/m O 1,00 h 717 W/m 15,6 km/h (3 Bft)
14.08.2012 16:00 27,1 C 36 % 1010,8 hPa 0,0 l/m O-SO 1,00 h 586 W/m 13,3 km/h (3 Bft)
14.08.2012 17:00 26,6 C 37 % 1010,7 hPa 0,0 l/m O-SO 0,67 h 390 W/m 10,2 km/h (2 Bft)
14.08.2012 18:00 25,5 C 40 % 1010,6 hPa 0,0 l/m O-SO 0,25 h 152 W/m 9,8 km/h (2 Bft)
14.08.2012 19:00 24,2 C 45 % 1010,8 hPa 0,0 l/m O 0,00 h 57 W/m 6,8 km/h (2 Bft)
14.08.2012 20:00 21,4 C 56 % 1011,1 hPa 0,0 l/m N 0,00 h 9 W/m 1,7 km/h (1 Bft)
14.08.2012 21:00 18,6 C 66 % 1011,7 hPa 0,0 l/m N 0,00 h 0 W/m 0,4 km/h (0 Bft)
14.08.2012 22:00 18,3 C 67 % 1011,9 hPa 0,0 l/m N 0,00 h 0 W/m 1,7 km/h (1 Bft)
14.08.2012 23:00 18,1 C 66 % 1011,9 hPa 0,0 l/m N 0,00 h 0 W/m 1,1 km/h (0 Bft)
15.08.2012 00:00 17,7 C 70 % 1011,9 hPa 0,0 l/m N 0,00 h 0 W/m 0,5 km/h (0 Bft)
15.08.2012 01:00 17,3 C 70 % 1011,5 hPa 0,0 l/m N 0,00 h 0 W/m 0,7 km/h (0 Bft)
15.08.2012 02:00 17,1 C 71 % 1011,1 hPa 0,0 l/m N 0,00 h 0 W/m 1,9 km/h (1 Bft)
15.08.2012 03:00 17,1 C 71 % 1010,9 hPa 0,0 l/m N 0,00 h 0 W/m 1,3 km/h (1 Bft)
15.08.2012 04:00 16,5 C 72 % 1010,9 hPa 0,0 l/m O 0,00 h 0 W/m 3,5 km/h (1 Bft)
15.08.2012 05:00 15,3 C 78 % 1010,6 hPa 0,0 l/m NO 0,00 h 0 W/m 3,2 km/h (1 Bft)
15.08.2012 06:00 14,8 C 78 % 1010,7 hPa 0,0 l/m N-NO 0,00 h 14 W/m 4,9 km/h (1 Bft)
15.08.2012 07:00 15,4 C 76 % 1010,8 hPa 0,0 l/m NO 0,25 h 85 W/m 3,2 km/h (1 Bft)
15.08.2012 08:00 18,1 C 68 % 1010,8 hPa 0,0 l/m N 1,00 h 275 W/m 6,1 km/h (2 Bft)
15.08.2012 09:00 20,4 C 62 % 1010,7 hPa 0,0 l/m O-NO 0,67 h 352 W/m 5,3 km/h (1 Bft)
15.08.2012 10:00 22,5 C 58 % 1010,4 hPa 0,0 l/m O-NO 0,92 h 522 W/m 7,0 km/h (2 Bft)
15.08.2012 11:00 23,9 C 56 % 1010,2 hPa 0,0 l/m O 0,75 h 523 W/m 8,2 km/h (2 Bft)
15.08.2012 12:00 26,0 C 51 % 1009,8 hPa 0,0 l/m O 0,92 h 741 W/m 8,0 km/h (2 Bft)
15.08.2012 13:00 27,8 C 45 % 1009,1 hPa 0,0 l/m SO 1,00 h 820 W/m 7,4 km/h (2 Bft)
15.08.2012 14:00 29,0 C 41 % 1008,8 hPa 0,0 l/m NO 1,00 h 779 W/m 7,6 km/h (2 Bft)
15.08.2012 15:00 30,0 C 38 % 1008,5 hPa 0,0 l/m O-NO 1,00 h 732 W/m 8,3 km/h (2 Bft)
15.08.2012 16:00 29,7 C 38 % 1008,3 hPa 0,0 l/m O-NO 0,75 h 399 W/m 7,9 km/h (2 Bft)
15.08.2012 17:00 28,6 C 43 % 1008,0 hPa 0,0 l/m SO 0,67 h 344 W/m 3,1 km/h (1 Bft)
15.08.2012 18:00 29,1 C 40 % 1007,8 hPa 0,0 l/m O-SO 0,42 h 210 W/m 10,4 km/h (2 Bft)
15.08.2012 19:00 27,0 C 49 % 1007,9 hPa 0,0 l/m O-SO 0,17 h 71 W/m 3,6 km/h (1 Bft)
15.08.2012 20:00 22,6 C 67 % 1008,1 hPa 0,0 l/m N 0,00 h 13 W/m 0,9 km/h (0 Bft)
15.08.2012 21:00 21,2 C 68 % 1008,6 hPa 0,0 l/m N 0,00 h 0 W/m 2,0 km/h (1 Bft)
15.08.2012 22:00 20,3 C 69 % 1008,9 hPa 0,0 l/m N 0,00 h 0 W/m 1,6 km/h (1 Bft)
15.08.2012 23:00 19,4 C 71 % 1008,9 hPa 0,0 l/m N 0,00 h 0 W/m 1,1 km/h (0 Bft)
16.08.2012 00:00 19,0 C 74 % 1009,4 hPa 0,0 l/m SO 0,00 h 0 W/m 2,7 km/h (1 Bft)
16.08.2012 01:00 19,3 C 77 % 1011,6 hPa 1,8 l/m W 0,00 h 0 W/m 20,6 km/h (4 Bft)
16.08.2012 02:00 17,3 C 93 % 1012,5 hPa 2,0 l/m O 0,00 h 0 W/m 5,9 km/h (2 Bft)
16.08.2012 03:00 17,0 C 96 % 1012,1 hPa 0,6 l/m S-SO 0,00 h 0 W/m 1,2 km/h (1 Bft)
16.08.2012 04:00 16,8 C 97 % 1011,9 hPa 2,0 l/m NW 0,00 h 0 W/m 7,1 km/h (2 Bft)
16.08.2012 05:00 17,0 C 97 % 1012,2 hPa 5,6 l/m NW 0,00 h 0 W/m 6,3 km/h (2 Bft)
16.08.2012 06:00 16,5 C 97 % 1013,3 hPa 4,2 l/m N-NW 0,00 h 5 W/m 18,2 km/h (3 Bft)
16.08.2012 07:00 15,3 C 96 % 1014,3 hPa 5,6 l/m N 0,00 h 7 W/m 22,1 km/h (4 Bft)
16.08.2012 08:00 15,0 C 97 % 1016,1 hPa 3,8 l/m W 0,00 h 37 W/m 7,8 km/h (2 Bft)
16.08.2012 09:00 15,3 C 97 % 1016,7 hPa 2,0 l/m S-SW 0,00 h 22 W/m 7,0 km/h (2 Bft)
16.08.2012 10:00 15,1 C 97 % 1017,3 hPa 1,0 l/m W 0,00 h 46 W/m 6,4 km/h (2 Bft)
16.08.2012 11:00 16,0 C 97 % 1017,4 hPa 0,0 l/m W-SW 0,00 h 117 W/m 4,0 km/h (1 Bft)
16.08.2012 12:00 16,0 C 96 % 1017,7 hPa 0,8 l/m W 0,00 h 117 W/m 5,9 km/h (2 Bft)
16.08.2012 13:00 16,4 C 96 % 1017,8 hPa 0,6 l/m W 0,00 h 253 W/m 4,8 km/h (1 Bft)
16.08.2012 14:00 18,2 C 88 % 1017,7 hPa 0,0 l/m N-NO 0,42 h 434 W/m 4,9 km/h (1 Bft)
16.08.2012 15:00 19,5 C 76 % 1017,5 hPa 0,0 l/m NW 0,42 h 410 W/m 5,5 km/h (1 Bft)
16.08.2012 16:00 20,8 C 73 % 1017,3 hPa 0,0 l/m W 1,00 h 662 W/m 7,2 km/h (2 Bft)
16.08.2012 17:00 21,2 C 68 % 1017,1 hPa 0,0 l/m W 0,92 h 465 W/m 6,7 km/h (2 Bft)
16.08.2012 18:00 21,1 C 68 % 1017,1 hPa 0,0 l/m W-SW 0,83 h 266 W/m 5,1 km/h (1 Bft)
16.08.2012 19:00 19,4 C 80 % 1017,2 hPa 0,0 l/m N 0,42 h 75 W/m 1,3 km/h (1 Bft)
16.08.2012 20:00 16,7 C 89 % 1017,7 hPa 0,0 l/m N 0,08 h 15 W/m 0,0 km/h (0 Bft)
16.08.2012 21:00 15,3 C 93 % 1018,2 hPa 0,0 l/m N 0,00 h 0 W/m 0,0 km/h (0 Bft)
16.08.2012 22:00 14,6 C 95 % 1018,4 hPa 0,0 l/m N 0,00 h 0 W/m 0,0 km/h (0 Bft)
16.08.2012 23:00 14,3 C 97 % 1018,6 hPa 0,0 l/m N 0,00 h 0 W/m 0,4 km/h (0 Bft)
17.08.2012 00:00 14,0 C 97 % 1018,4 hPa 0,0 l/m W 0,00 h 0 W/m 2,8 km/h (1 Bft)
17.08.2012 01:00 13,9 C 97 % 1018,3 hPa 0,0 l/m W 0,00 h 0 W/m 4,3 km/h (1 Bft)
17.08.2012 02:00 13,6 C 97 % 1018,2 hPa 0,0 l/m W 0,00 h 0 W/m 2,8 km/h (1 Bft)
17.08.2012 03:00 13,4 C 97 % 1017,9 hPa 0,0 l/m W 0,00 h 0 W/m 4,5 km/h (1 Bft)
17.08.2012 04:00 13,1 C 98 % 1018,0 hPa 0,0 l/m W 0,00 h 0 W/m 5,1 km/h (1 Bft)
17.08.2012 05:00 12,7 C 98 % 1018,4 hPa 0,0 l/m W 0,00 h 0 W/m 4,8 km/h (1 Bft)
17.08.2012 06:00 12,2 C 98 % 1018,8 hPa 0,0 l/m N 0,00 h 11 W/m 2,1 km/h (1 Bft)
17.08.2012 07:00 12,2 C 99 % 1019,1 hPa 0,0 l/m NW 0,00 h 43 W/m 4,3 km/h (1 Bft)
17.08.2012 08:00 13,1 C 99 % 1019,4 hPa 0,0 l/m N-NW 0,00 h 115 W/m 4,9 km/h (1 Bft)
17.08.2012 09:00 15,2 C 98 % 1019,6 hPa 0,0 l/m N-NW 0,42 h 320 W/m 6,7 km/h (2 Bft)
17.08.2012 10:00 18,2 C 88 % 1019,4 hPa 0,0 l/m O-NO 1,00 h 594 W/m 9,3 km/h (2 Bft)
17.08.2012 11:00 20,5 C 79 % 1019,2 hPa 0,0 l/m O 0,83 h 641 W/m 10,4 km/h (2 Bft)
17.08.2012 12:00 22,4 C 69 % 1018,9 hPa 0,0 l/m NO 0,92 h 781 W/m 12,1 km/h (2 Bft)
17.08.2012 13:00 23,6 C 62 % 1018,5 hPa 0,0 l/m O-NO 0,75 h 693 W/m 10,7 km/h (2 Bft)
17.08.2012 14:00 24,8 C 57 % 1018,4 hPa 0,0 l/m O 1,00 h 846 W/m 10,8 km/h (2 Bft)
17.08.2012 15:00 25,5 C 54 % 1018,1 hPa 0,0 l/m NO 1,00 h 749 W/m 10,2 km/h (2 Bft)
17.08.2012 16:00 25,8 C 51 % 1017,9 hPa 0,0 l/m NO 1,00 h 636 W/m 9,9 km/h (2 Bft)
17.08.2012 17:00 25,9 C 49 % 1017,7 hPa 0,0 l/m O-NO 1,00 h 473 W/m 8,3 km/h (2 Bft)
17.08.2012 18:00 25,6 C 50 % 1017,6 hPa 0,0 l/m O-NO 1,00 h 315 W/m 8,3 km/h (2 Bft)
17.08.2012 19:00 24,4 C 58 % 1017,6 hPa 0,0 l/m O-NO 0,50 h 93 W/m 6,1 km/h (2 Bft)
17.08.2012 20:00 20,6 C 76 % 1017,9 hPa 0,0 l/m N 0,00 h 9 W/m 1,6 km/h (1 Bft)
17.08.2012 21:00 18,7 C 82 % 1018,5 hPa 0,0 l/m N 0,00 h 0 W/m 1,5 km/h (1 Bft)
17.08.2012 22:00 17,6 C 86 % 1018,9 hPa 0,0 l/m N 0,00 h 0 W/m 1,6 km/h (1 Bft)
17.08.2012 23:00 16,9 C 89 % 1019,0 hPa 0,0 l/m N 0,00 h 0 W/m 1,7 km/h (1 Bft)
18.08.2012 00:00 16,3 C 91 % 1019,0 hPa 0,0 l/m N 0,00 h 0 W/m 1,6 km/h (1 Bft)
18.08.2012 01:00 16,0 C 92 % 1018,8 hPa 0,0 l/m N 0,00 h 0 W/m 2,0 km/h (1 Bft)
18.08.2012 02:00 15,6 C 93 % 1018,4 hPa 0,0 l/m O-NO 0,00 h 0 W/m 4,0 km/h (1 Bft)
18.08.2012 03:00 15,1 C 94 % 1018,2 hPa 0,0 l/m O-NO 0,00 h 0 W/m 3,1 km/h (1 Bft)
18.08.2012 04:00 14,6 C 95 % 1018,1 hPa 0,0 l/m O-NO 0,00 h 0 W/m 1,6 km/h (1 Bft)
18.08.2012 05:00 14,3 C 96 % 1017,9 hPa 0,0 l/m N 0,00 h 0 W/m 3,3 km/h (1 Bft)
18.08.2012 06:00 14,1 C 96 % 1018,4 hPa 0,0 l/m NW 0,00 h 11 W/m 3,2 km/h (1 Bft)
18.08.2012 07:00 14,8 C 96 % 1018,7 hPa 0,0 l/m NW 0,25 h 90 W/m 5,6 km/h (1 Bft)
18.08.2012 08:00 17,2 C 89 % 1018,7 hPa 0,0 l/m N 1,00 h 263 W/m 6,1 km/h (2 Bft)
18.08.2012 09:00 19,9 C 81 % 1018,6 hPa 0,0 l/m N 1,00 h 437 W/m 5,3 km/h (1 Bft)
18.08.2012 10:00 22,3 C 73 % 1018,6 hPa 0,0 l/m N-NO 1,00 h 597 W/m 6,8 km/h (2 Bft)
18.08.2012 11:00 24,7 C 64 % 1018,6 hPa 0,0 l/m O-SO 1,00 h 723 W/m 10,9 km/h (2 Bft)
18.08.2012 12:00 26,5 C 58 % 1018,4 hPa 0,0 l/m O-NO 1,00 h 803 W/m 8,9 km/h (2 Bft)
18.08.2012 13:00 27,8 C 51 % 1018,1 hPa 0,0 l/m O-NO 1,00 h 836 W/m 11,3 km/h (2 Bft)
18.08.2012 14:00 29,2 C 44 % 1017,9 hPa 0,0 l/m O-SO 1,00 h 819 W/m 12,2 km/h (2 Bft)
18.08.2012 15:00 30,0 C 44 % 1017,7 hPa 0,0 l/m O-SO 1,00 h 751 W/m 10,7 km/h (2 Bft)
18.08.2012 16:00 30,3 C 43 % 1017,5 hPa 0,0 l/m O-SO 1,00 h 639 W/m 11,0 km/h (2 Bft)
18.08.2012 17:00 30,2 C 44 % 1017,5 hPa 0,0 l/m O 1,00 h 489 W/m 10,1 km/h (2 Bft)
18.08.2012 18:00 29,8 C 46 % 1017,4 hPa 0,0 l/m O 1,00 h 317 W/m 11,0 km/h (2 Bft)
18.08.2012 19:00 28,0 C 51 % 1017,4 hPa 0,0 l/m O 0,50 h 95 W/m 6,6 km/h (2 Bft)
18.08.2012 20:00 23,0 C 74 % 1017,7 hPa 0,0 l/m N 0,00 h 9 W/m 0,4 km/h (0 Bft)
18.08.2012 21:00 20,9 C 81 % 1018,2 hPa 0,0 l/m N 0,00 h 0 W/m 0,3 km/h (0 Bft)
18.08.2012 22:00 19,9 C 84 % 1018,3 hPa 0,0 l/m N 0,00 h 0 W/m 1,5 km/h (1 Bft)
18.08.2012 23:00 19,3 C 83 % 1018,4 hPa 0,0 l/m N 0,00 h 0 W/m 2,4 km/h (1 Bft)
19.08.2012 00:00 18,7 C 84 % 1018,3 hPa 0,0 l/m O 0,00 h 0 W/m 2,9 km/h (1 Bft)
19.08.2012 01:00 18,0 C 87 % 1018,1 hPa 0,0 l/m O 0,00 h 0 W/m 3,2 km/h (1 Bft)
19.08.2012 02:00 16,9 C 91 % 1017,9 hPa 0,0 l/m N 0,00 h 0 W/m 1,1 km/h (0 Bft)
19.08.2012 03:00 16,3 C 94 % 1018,1 hPa 0,0 l/m N 0,00 h 0 W/m 1,5 km/h (1 Bft)
19.08.2012 04:00 15,9 C 95 % 1018,2 hPa 0,0 l/m O-NO 0,00 h 0 W/m 3,9 km/h (1 Bft)
19.08.2012 05:00 15,3 C 95 % 1018,3 hPa 0,0 l/m N 0,00 h 0 W/m 0,0 km/h (0 Bft)
19.08.2012 06:00 14,8 C 96 % 1018,8 hPa 0,0 l/m N 0,00 h 10 W/m 1,2 km/h (1 Bft)
19.08.2012 07:00 16,2 C 95 % 1019,0 hPa 0,0 l/m N 0,25 h 87 W/m 0,8 km/h (0 Bft)
19.08.2012 08:00 19,0 C 87 % 1019,0 hPa 0,0 l/m N 1,00 h 265 W/m 0,0 km/h (0 Bft)
19.08.2012 09:00 22,1 C 74 % 1019,1 hPa 0,0 l/m S-SO 1,00 h 441 W/m 2,1 km/h (1 Bft)
19.08.2012 10:00 24,0 C 66 % 1019,2 hPa 0,0 l/m SW 1,00 h 602 W/m 7,3 km/h (2 Bft)
19.08.2012 11:00 26,0 C 59 % 1019,1 hPa 0,0 l/m S-SW 1,00 h 728 W/m 8,4 km/h (2 Bft)
19.08.2012 12:00 28,1 C 54 % 1018,8 hPa 0,0 l/m SW 1,00 h 807 W/m 7,0 km/h (2 Bft)
19.08.2012 13:00 29,8 C 50 % 1018,3 hPa 0,0 l/m W-SW 1,00 h 835 W/m 7,6 km/h (2 Bft)
19.08.2012 14:00 31,4 C 45 % 1017,7 hPa 0,0 l/m SW 1,00 h 807 W/m 6,9 km/h (2 Bft)
19.08.2012 15:00 32,3 C 40 % 1017,2 hPa 0,0 l/m W-SW 1,00 h 736 W/m 5,9 km/h (2 Bft)
19.08.2012 16:00 33,3 C 33 % 1016,9 hPa 0,0 l/m O 1,00 h 621 W/m 6,0 km/h (2 Bft)
19.08.2012 17:00 33,5 C 34 % 1016,6 hPa 0,0 l/m SO 1,00 h 469 W/m 4,9 km/h (1 Bft)
19.08.2012 18:00 32,6 C 38 % 1016,2 hPa 0,0 l/m O 1,00 h 285 W/m 4,7 km/h (1 Bft)
19.08.2012 19:00 29,1 C 55 % 1016,0 hPa 0,0 l/m O 0,50 h 81 W/m 2,9 km/h (1 Bft)
19.08.2012 20:00 24,2 C 69 % 1016,1 hPa 0,0 l/m N 0,08 h 11 W/m 1,1 km/h (0 Bft)
19.08.2012 21:00 21,9 C 75 % 1016,3 hPa 0,0 l/m N 0,00 h 0 W/m 0,7 km/h (0 Bft)
19.08.2012 22:00 20,7 C 77 % 1016,4 hPa 0,0 l/m N 0,00 h 0 W/m 1,2 km/h (1 Bft)
19.08.2012 23:00 19,9 C 80 % 1016,5 hPa 0,0 l/m N 0,00 h 0 W/m 0,8 km/h (0 Bft)
Min-Datum _ 13.08.12 19.08.12 15.08.12 - - - - 13.08.12
_ Min-Zeit 05:40 16:25 18:10 - - - - 00:05
Minimum _ 11,2 C 30 % 1007,7 hPa - - - - 0,0 km/h (0 Bft)
Max-Datum _ 19.08.12 16.08.12 17.08.12 16.08.12 - 15.08.12 17.08.12 16.08.12
_ Max-Zeit 16:50 06:00 09:00 05:45 - 18:30 14:05 01:25
Maximum _ 33,8 C 99 % 1019,7 hPa 5,6 l/m - 0,17 h 953 W/m 32,2 km/h
W (5 Bft)
Durchschnitt _ 20,2 C 71 % 1014,7 hPa #30,0 l/m O #66:30 h 392 W/m 5,4 km/h (1 Bft)